Time;durP1;ratioP1;P1;durP2;ratioP2;P2;SDS_P1;SDS_P2;PMS_P1;PMS_P2;Temp;Humidity;BMP_temperature;BMP_pressure;BME280_temperature;BME280_humidity;BME280_pressure;Samples;Min_cycle;Max_cycle;Signal;HPM_P1;HPM_P2
2022/10/06 00:02:08;;;;;;;2.17;1.70;;;;;;;23.99;45.23;97880.94;5033273;28;20489;-29
2022/10/06 00:04:34;;;;;;;3.13;1.70;;;;;;;23.97;45.50;97879.91;5033155;28;20043;-28
2022/10/06 00:06:59;;;;;;;2.25;1.50;;;;;;;24.05;45.51;97885.81;5033312;28;20021;-29
2022/10/06 00:09:25;;;;;;;2.08;1.45;;;;;;;24.05;45.40;97886.56;5035187;28;20031;-28
2022/10/06 00:11:50;;;;;;;1.38;1.27;;;;;;;24.07;44.94;97875.78;5037283;28;20060;-28
2022/10/06 00:14:16;;;;;;;1.65;1.30;;;;;;;24.00;45.03;97876.91;5037103;28;20068;-28
2022/10/06 00:16:41;;;;;;;3.13;1.50;;;;;;;24.00;45.24;97878.94;5037038;28;20035;-28
2022/10/06 00:19:06;;;;;;;2.13;1.45;;;;;;;24.00;45.35;97884.47;5036891;28;20048;-28
2022/10/06 00:21:32;;;;;;;4.72;1.90;;;;;;;24.02;45.11;97881.22;5037140;28;20373;-28
2022/10/06 00:23:58;;;;;;;2.53;1.88;;;;;;;23.99;45.06;97872.63;5036912;28;20088;-28
2022/10/06 00:26:23;;;;;;;2.50;1.70;;;;;;;23.93;45.28;97871.03;5036729;28;20470;-28
2022/10/06 00:28:49;;;;;;;3.58;1.40;;;;;;;23.88;45.69;97874.47;5036856;28;20468;-28
2022/10/06 00:31:15;;;;;;;3.05;1.38;;;;;;;23.96;45.45;97868.06;5035432;28;20028;-28
2022/10/06 00:33:41;;;;;;;2.92;1.50;;;;;;;23.91;45.80;97870.75;5036936;28;20032;-30
2022/10/06 00:36:08;;;;;;;3.20;1.60;;;;;;;23.92;45.85;97866.72;5036422;28;20104;-28
2022/10/06 00:38:34;;;;;;;1.73;1.55;;;;;;;23.89;45.94;97871.22;5036448;28;20557;-28
2022/10/06 00:40:59;;;;;;;2.42;1.60;;;;;;;23.88;45.92;97864.16;5036459;28;20116;-28
2022/10/06 00:43:40;;;;;;;4.57;1.73;;;;;;;23.95;45.93;97866.53;5036489;28;20374;-28
2022/10/06 00:46:15;;;;;;;3.38;1.70;;;;;;;23.96;46.11;97867.28;5036434;28;20036;-28
2022/10/06 00:48:45;;;;;;;2.03;1.60;;;;;;;23.86;46.33;97866.63;5036544;28;20057;-28
2022/10/06 00:51:11;;;;;;;2.10;1.40;;;;;;;23.90;46.16;97858.88;5036331;28;20026;-29
2022/10/06 00:53:37;;;;;;;1.80;1.15;;;;;;;23.89;46.30;97857.38;5036208;28;20069;-29
2022/10/06 00:56:03;;;;;;;1.90;1.30;;;;;;;23.89;46.26;97862.91;5036163;28;20060;-29
2022/10/06 00:58:30;;;;;;;2.75;1.60;;;;;;;23.87;46.62;97862.63;5036294;28;20022;-28
2022/10/06 01:00:56;;;;;;;2.17;1.50;;;;;;;23.88;46.58;97855.84;5036505;28;20064;-28
2022/10/06 01:03:25;;;;;;;2.10;1.27;;;;;;;23.88;46.43;97849.53;5036169;28;20097;-30
2022/10/06 01:05:53;;;;;;;3.15;1.50;;;;;;;23.88;46.65;97849.53;5035921;28;20093;-28
2022/10/06 01:08:21;;;;;;;2.50;1.50;;;;;;;23.90;46.60;97853.34;5036095;28;20480;-29
2022/10/06 01:10:47;;;;;;;4.78;2.00;;;;;;;23.90;46.49;97847.03;5036273;28;20033;-28
2022/10/06 01:13:14;;;;;;;3.55;1.80;;;;;;;23.90;46.41;97852.59;5035887;28;20029;-28
2022/10/06 01:15:49;;;;;;;2.10;1.35;;;;;;;23.87;46.55;97848.75;5035930;28;20032;-28
2022/10/06 01:18:17;;;;;;;3.35;1.60;;;;;;;23.84;46.74;97851.75;5035945;28;20104;-29
2022/10/06 01:21:04;;;;;;;2.58;1.45;;;;;;;23.85;46.57;97845.72;5034959;28;20029;-28
2022/10/06 01:23:30;;;;;;;2.22;1.55;;;;;;;23.91;46.77;97845.81;5034742;28;20028;-28
2022/10/06 01:25:58;;;;;;;2.22;1.38;;;;;;;23.85;46.70;97845.72;5035768;28;20040;-29
2022/10/06 01:28:24;;;;;;;3.38;1.60;;;;;;;23.89;46.50;97845.50;5035938;28;20055;-28
2022/10/06 01:30:53;;;;;;;4.13;1.70;;;;;;;23.84;46.92;97835.13;5035613;28;20037;-29
2022/10/06 01:33:20;;;;;;;1.92;1.48;;;;;;;23.83;46.84;97836.38;5035595;28;20021;-29
2022/10/06 01:35:48;;;;;;;2.90;1.60;;;;;;;23.87;46.80;97823.81;5035478;28;20029;-28
2022/10/06 01:38:13;;;;;;;2.40;1.73;;;;;;;23.90;46.66;97831.19;5035551;28;20028;-28
2022/10/06 01:40:39;;;;;;;2.53;1.30;;;;;;;23.92;46.61;97837.00;5035395;28;20037;-28
2022/10/06 01:43:04;;;;;;;2.35;1.52;;;;;;;23.86;46.60;97841.69;5035583;28;20043;-28
2022/10/06 01:45:29;;;;;;;2.20;1.70;;;;;;;23.89;46.57;97837.19;5035343;28;20429;-28
2022/10/06 01:47:55;;;;;;;1.65;1.23;;;;;;;23.88;46.50;97832.91;5035338;28;20470;-28
2022/10/06 01:50:20;;;;;;;2.95;1.70;;;;;;;23.88;46.55;97833.66;5035246;28;20030;-28
2022/10/06 01:52:46;;;;;;;2.53;1.67;;;;;;;23.81;47.05;97834.09;5035447;28;20071;-30
2022/10/06 01:55:12;;;;;;;1.80;1.38;;;;;;;23.87;46.70;97843.22;5035161;28;20048;-28
2022/10/06 01:57:40;;;;;;;2.30;1.38;;;;;;;23.85;47.03;97842.97;5035135;28;20029;-29
2022/10/06 02:00:06;;;;;;;2.20;1.48;;;;;;;23.90;46.62;97830.41;5035001;28;20026;-28
2022/10/06 02:02:32;;;;;;;2.22;1.58;;;;;;;23.89;46.75;97845.50;5034957;28;20029;-28
2022/10/06 02:04:57;;;;;;;2.35;1.70;;;;;;;23.76;46.92;97843.06;5035138;28;20082;-28
2022/10/06 02:07:23;;;;;;;1.90;1.42;;;;;;;23.85;46.75;97831.88;5034980;28;20033;-28
2022/10/06 02:09:48;;;;;;;3.47;1.90;;;;;;;23.77;46.92;97839.03;5034874;28;20028;-28
2022/10/06 02:12:14;;;;;;;1.92;1.50;;;;;;;23.82;46.97;97827.28;5034963;28;20025;-28
2022/10/06 02:14:40;;;;;;;1.90;1.48;;;;;;;23.80;46.87;97840.88;5034882;28;20021;-28
2022/10/06 02:17:06;;;;;;;2.40;1.50;;;;;;;23.77;46.97;97833.50;5034774;28;20031;-28
2022/10/06 02:19:31;;;;;;;5.22;1.67;;;;;;;23.79;46.93;97842.09;5034849;28;20453;-28
2022/10/06 02:21:57;;;;;;;2.33;1.50;;;;;;;23.79;46.68;97839.34;5034721;28;20033;-28
2022/10/06 02:24:23;;;;;;;2.72;1.77;;;;;;;23.78;46.99;97834.28;5034447;28;20033;-28
2022/10/06 02:26:48;;;;;;;3.20;1.60;;;;;;;23.76;46.97;97840.28;5034789;28;20022;-29
2022/10/06 02:29:14;;;;;;;2.88;1.63;;;;;;;23.85;46.63;97837.41;5034422;28;20386;-28
2022/10/06 02:31:39;;;;;;;2.95;1.75;;;;;;;23.75;47.02;97836.00;5033473;28;20100;-28
2022/10/06 02:34:08;;;;;;;2.45;1.70;;;;;;;23.74;46.96;97836.50;5033227;28;20031;-28
2022/10/06 02:36:34;;;;;;;3.63;1.77;;;;;;;23.75;46.97;97840.75;5034312;28;20470;-28
2022/10/06 02:38:59;;;;;;;2.75;1.75;;;;;;;23.60;47.02;97836.03;5034376;28;20055;-29
2022/10/06 02:41:25;;;;;;;3.55;1.52;;;;;;;23.70;47.07;97844.22;5034500;28;20025;-28
2022/10/06 02:43:54;;;;;;;3.08;1.65;;;;;;;23.72;46.48;97842.50;5034116;28;20053;-28
2022/10/06 02:46:19;;;;;;;3.22;1.60;;;;;;;23.71;47.00;97840.97;5034281;28;20025;-28
2022/10/06 02:48:45;;;;;;;1.83;1.40;;;;;;;23.67;46.83;97837.63;5034396;28;20120;-28
2022/10/06 02:51:14;;;;;;;2.22;1.65;;;;;;;23.80;46.54;97843.63;5034055;28;20041;-29
2022/10/06 02:53:41;;;;;;;2.15;1.48;;;;;;;23.83;46.28;97841.91;5034041;28;20032;-28
2022/10/06 02:56:16;;;;;;;4.25;1.90;;;;;;;23.71;46.85;97829.91;5034069;28;20104;-28
2022/10/06 02:58:43;;;;;;;5.20;2.20;;;;;;;23.64;46.99;97841.34;5033979;28;20079;-29
2022/10/06 03:01:20;;;;;;;2.10;1.42;;;;;;;23.75;46.58;97840.75;5033865;28;20474;-28
2022/10/06 03:03:47;;;;;;;3.10;2.00;;;;;;;23.66;46.88;97849.19;5034118;28;20095;-28
2022/10/06 03:06:24;;;;;;;2.03;1.67;;;;;;;23.66;46.46;97840.88;5034000;28;20064;-28
2022/10/06 03:08:57;;;;;;;2.53;1.90;;;;;;;23.74;46.12;97848.31;5033957;28;20037;-28
2022/10/06 03:11:28;;;;;;;2.45;1.90;;;;;;;23.57;46.70;97848.06;5033777;28;20577;-30
2022/10/06 03:13:54;;;;;;;1.83;1.60;;;;;;;23.57;46.62;97852.84;5033723;28;20029;-28
2022/10/06 03:16:24;;;;;;;3.00;1.40;;;;;;;23.54;46.57;97853.78;5033922;28;20461;-28
2022/10/06 03:18:52;;;;;;;4.82;1.98;;;;;;;23.56;46.54;97856.84;5033786;28;20037;-28
2022/10/06 03:21:23;;;;;;;2.95;1.67;;;;;;;23.57;46.73;97852.84;5033738;28;20057;-29
2022/10/06 03:23:51;;;;;;;4.53;1.98;;;;;;;23.60;46.54;97851.88;5033700;28;20024;-28
2022/10/06 03:26:19;;;;;;;3.58;2.00;;;;;;;23.59;46.44;97853.91;5033503;28;20382;-29
2022/10/06 03:28:45;;;;;;;2.88;1.65;;;;;;;23.50;46.44;97850.41;5033896;28;20036;-28
2022/10/06 03:31:11;;;;;;;3.10;1.80;;;;;;;23.51;46.29;97843.66;5033825;28;20387;-28
2022/10/06 03:33:37;;;;;;;2.58;1.70;;;;;;;23.53;46.38;97844.72;5033493;28;20129;-30
2022/10/06 03:36:14;;;;;;;2.20;1.65;;;;;;;23.65;46.19;97853.97;5033473;28;20104;-29
2022/10/06 03:38:40;;;;;;;2.55;2.03;;;;;;;23.62;46.32;97854.91;5033273;28;20049;-30
2022/10/06 03:41:08;;;;;;;4.38;2.35;;;;;;;23.57;46.57;97852.84;5032252;28;20029;-28
2022/10/06 03:43:35;;;;;;;2.67;2.00;;;;;;;23.66;46.34;97854.72;5033235;28;20100;-29
2022/10/06 03:46:01;;;;;;;3.05;1.73;;;;;;;23.63;46.38;97857.22;5033371;28;20092;-28
2022/10/06 03:48:28;;;;;;;3.47;2.00;;;;;;;23.52;46.55;97853.50;5033379;28;20029;-28
2022/10/06 03:50:57;;;;;;;4.30;2.00;;;;;;;23.63;46.20;97854.44;5033255;28;20029;-28
2022/10/06 03:53:28;;;;;;;2.83;2.03;;;;;;;23.62;46.18;97849.38;5033254;28;20025;-28
2022/10/06 03:56:11;;;;;;;3.72;2.13;;;;;;;23.71;45.92;97849.28;5033304;28;20080;-28
2022/10/06 03:58:39;;;;;;;3.70;1.85;;;;;;;23.81;45.75;97852.72;5033439;28;20038;-28
2022/10/06 04:01:07;;;;;;;2.80;1.80;;;;;;;23.75;45.72;97847.06;5033251;28;20037;-28
2022/10/06 04:03:33;;;;;;;3.70;1.95;;;;;;;23.85;45.51;97845.72;5033381;28;20441;-28
2022/10/06 04:06:02;;;;;;;2.00;1.70;;;;;;;23.82;45.33;97840.38;5033277;28;20404;-28
2022/10/06 04:08:29;;;;;;;3.60;2.00;;;;;;;23.79;45.49;97847.66;5033233;28;20022;-29
2022/10/06 04:10:55;;;;;;;3.15;2.03;;;;;;;23.80;45.30;97837.31;5033003;28;20025;-29
2022/10/06 04:13:21;;;;;;;3.05;1.90;;;;;;;23.64;45.89;97835.81;5033095;28;20029;-28
2022/10/06 04:15:47;;;;;;;2.97;1.80;;;;;;;23.62;46.05;97843.84;5033020;28;20029;-28
2022/10/06 04:18:14;;;;;;;4.65;2.28;;;;;;;23.74;45.63;97851.06;5033008;28;20053;-30
2022/10/06 04:20:39;;;;;;;2.70;1.98;;;;;;;23.71;45.80;97856.84;5033388;28;20116;-28
2022/10/06 04:23:06;;;;;;;3.25;1.90;;;;;;;23.76;45.32;97845.06;5031737;28;20052;-28
2022/10/06 04:25:32;;;;;;;3.28;2.03;;;;;;;23.75;45.33;97847.06;5033031;28;20033;-28
2022/10/06 04:27:58;;;;;;;3.85;1.80;;;;;;;23.74;45.63;97845.53;5033106;28;20079;-28
2022/10/06 04:30:25;;;;;;;2.78;1.98;;;;;;;23.74;45.53;97840.00;5032919;28;20025;-28
2022/10/06 04:32:51;;;;;;;3.00;2.13;;;;;;;23.59;46.04;97844.81;5031676;28;20116;-28
2022/10/06 04:35:16;;;;;;;2.65;2.10;;;;;;;23.62;45.64;97841.06;5033032;28;20076;-28
2022/10/06 04:37:42;;;;;;;2.80;1.92;;;;;;;23.68;45.70;97847.47;5031569;28;20021;-28
2022/10/06 04:40:07;;;;;;;4.18;2.40;;;;;;;23.70;45.50;97845.00;5032712;28;20072;-28
2022/10/06 04:42:33;;;;;;;3.70;2.22;;;;;;;23.68;45.70;97839.16;5032584;28;20518;-27
2022/10/06 04:44:58;;;;;;;4.22;2.47;;;;;;;23.75;45.40;97847.06;5033025;28;20025;-28
2022/10/06 04:47:24;;;;;;;3.38;2.08;;;;;;;23.73;45.39;97832.97;5033017;28;20025;-28
2022/10/06 04:49:49;;;;;;;3.72;2.28;;;;;;;23.73;45.40;97844.03;5032691;28;20482;-29
2022/10/06 04:52:15;;;;;;;3.63;2.35;;;;;;;23.71;45.39;97843.75;5032705;28;20471;-28
2022/10/06 04:54:40;;;;;;;3.50;2.53;;;;;;;23.70;45.34;97836.69;5033171;28;20029;-28
2022/10/06 04:57:06;;;;;;;5.00;2.85;;;;;;;23.73;45.05;97843.28;5036264;28;20394;-28
2022/10/06 05:02:15;;;;;;;5.03;2.95;;;;;;;23.76;45.05;97843.06;5036279;28;20028;-28
2022/10/06 05:04:41;;;;;;;5.07;3.25;;;;;;;23.79;45.05;97839.34;5036214;28;20400;-28
2022/10/06 05:07:06;;;;;;;4.65;3.22;;;;;;;23.78;45.31;97835.03;5036127;28;20465;-30
2022/10/06 05:09:32;;;;;;;4.72;3.60;;;;;;;23.75;45.02;97841.53;5036297;28;20397;-28
2022/10/06 05:11:58;;;;;;;3.75;2.90;;;;;;;23.80;45.08;97838.09;5036409;28;20038;-28
2022/10/06 05:14:23;;;;;;;5.32;3.10;;;;;;;23.83;44.89;97839.91;5036149;28;20025;-28
2022/10/06 05:16:49;;;;;;;4.90;3.30;;;;;;;23.83;44.71;97836.38;5035852;28;20037;-28
2022/10/06 05:19:14;;;;;;;5.80;3.50;;;;;;;23.77;45.28;97838.28;5034536;28;20026;-29
2022/10/06 05:21:40;;;;;;;5.32;3.13;;;;;;;23.74;45.03;97848.31;5036036;28;20040;-28
2022/10/06 05:24:05;;;;;;;5.70;3.30;;;;;;;23.73;45.35;97844.03;5035782;28;20029;-27
2022/10/06 05:26:33;;;;;;;6.50;3.30;;;;;;;23.71;45.06;97846.53;5035843;28;20067;-28
2022/10/06 05:28:58;;;;;;;5.05;3.08;;;;;;;23.74;45.17;97840.00;5036066;28;20033;-28
2022/10/06 05:31:27;;;;;;;5.35;3.30;;;;;;;23.67;45.24;97832.09;5035784;28;20095;-29
2022/10/06 05:33:54;;;;;;;6.07;3.55;;;;;;;23.68;45.39;97832.84;5035573;28;20075;-28
2022/10/06 05:36:22;;;;;;;3.33;2.70;;;;;;;23.71;45.49;97840.22;5035737;28;20103;-30
2022/10/06 05:38:48;;;;;;;6.53;4.05;;;;;;;23.74;44.94;97839.25;5035418;28;20080;-28
2022/10/06 05:41:25;;;;;;;8.60;4.20;;;;;;;23.68;45.27;97833.63;5035443;28;20061;-28
2022/10/06 05:43:52;;;;;;;9.95;4.30;;;;;;;23.79;45.11;97841.34;5030433;28;20030;-28
2022/10/06 05:46:22;;;;;;;8.00;4.10;;;;;;;23.81;44.93;97834.09;5032510;28;20025;-28
2022/10/06 05:48:50;;;;;;;9.63;4.28;;;;;;;23.80;44.96;97837.31;5033644;28;20087;-28
2022/10/06 05:51:18;;;;;;;7.40;4.13;;;;;;;23.78;45.14;97837.81;5017919;28;20397;-28
2022/10/06 05:53:44;;;;;;;7.15;3.88;;;;;;;23.79;45.20;97849.66;5013547;28;20037;-28
2022/10/06 05:56:17;;;;;;;9.18;4.43;;;;;;;23.71;45.34;97846.53;5013262;28;20038;-28
2022/10/06 05:58:45;;;;;;;6.60;3.85;;;;;;;23.70;45.41;97844.22;5013342;28;20030;-27
2022/10/06 06:01:13;;;;;;;7.28;3.63;;;;;;;23.71;45.56;97849.28;5035004;28;20113;-27
2022/10/06 06:03:40;;;;;;;5.40;3.40;;;;;;;23.66;45.55;97854.72;5035107;28;20044;-28
2022/10/06 06:06:24;;;;;;;7.35;3.90;;;;;;;23.60;45.50;97846.34;5034735;28;20052;-28
2022/10/06 06:08:53;;;;;;;;;;;;;;;23.60;45.80;97854.66;5035566;28;20049;-28
2022/10/06 06:11:24;;;;;;;6.00;3.13;;;;;;;23.68;45.60;97861.31;5034914;28;19916;-28
2022/10/06 06:13:51;;;;;;;6.68;3.33;;;;;;;23.75;45.41;97863.69;5034776;28;20478;-28
2022/10/06 06:16:16;;;;;;;8.35;3.63;;;;;;;23.77;45.37;97855.66;5034740;28;20105;-28
2022/10/06 06:18:42;;;;;;;5.45;3.38;;;;;;;23.69;45.64;97864.84;5030735;28;20533;-27
2022/10/06 06:21:09;;;;;;;5.93;3.15;;;;;;;23.71;45.74;97867.91;5021745;28;20031;-29
2022/10/06 06:23:40;;;;;;;7.28;3.22;;;;;;;23.67;45.55;97857.03;5031372;28;20492;-28
2022/10/06 06:26:09;;;;;;;6.00;3.28;;;;;;;23.61;45.62;97865.22;5016166;28;20053;-28
2022/10/06 06:28:35;;;;;;;5.10;2.95;;;;;;;23.65;45.63;97867.81;5029835;28;20033;-28
2022/10/06 06:31:09;;;;;;;4.55;2.65;;;;;;;23.57;45.73;97870.22;5032439;28;20037;-28
2022/10/06 06:33:36;;;;;;;5.85;3.08;;;;;;;23.68;45.73;97866.88;5032538;28;20036;-28
2022/10/06 06:36:11;;;;;;;4.15;2.78;;;;;;;23.68;45.79;97866.88;5032448;28;20033;-29
2022/10/06 06:38:37;;;;;;;5.30;2.80;;;;;;;23.61;45.71;97862.47;5032207;28;20057;-29
2022/10/06 06:41:03;;;;;;;5.10;2.63;;;;;;;23.59;45.87;97872.50;5032359;28;20124;-28
2022/10/06 06:43:28;;;;;;;5.47;2.55;;;;;;;23.69;45.89;97867.63;5031991;28;20079;-28
2022/10/06 06:46:01;;;;;;;4.50;2.60;;;;;;;23.70;46.00;97869.16;5032186;28;20030;-28
2022/10/06 06:48:26;;;;;;;5.95;3.13;;;;;;;22.33;50.60;97884.91;5032029;28;20022;-28
2022/10/06 06:50:59;;;;;;;7.35;3.10;;;;;;;22.69;49.71;97872.06;5032124;28;20436;-27
2022/10/06 06:53:25;;;;;;;8.38;3.13;;;;;;;22.98;48.86;97880.47;5032198;28;20061;-28
2022/10/06 06:55:50;;;;;;;9.32;3.00;;;;;;;23.15;48.53;97864.16;5031880;28;20055;-28
2022/10/06 06:58:18;;;;;;;4.57;2.45;;;;;;;23.22;48.37;97870.09;5021902;28;20454;-27
2022/10/06 07:00:43;;;;;;;6.03;2.65;;;;;;;23.23;48.62;97868.09;5014413;28;20030;-28
2022/10/06 07:03:14;;;;;;;6.97;2.38;;;;;;;23.27;48.17;97874.94;5014197;28;20049;-27
2022/10/06 07:05:40;;;;;;;6.90;2.80;;;;;;;23.33;48.04;97875.06;5018094;28;20040;-29
2022/10/06 07:08:10;;;;;;;6.07;2.53;;;;;;;23.48;47.80;97878.59;5014394;28;20421;-27
2022/10/06 07:10:36;;;;;;;4.25;2.00;;;;;;;23.53;47.06;97874.41;5013996;28;20037;-28
2022/10/06 07:13:03;;;;;;;4.82;2.70;;;;;;;23.54;47.33;97878.72;5012671;28;20029;-27
2022/10/06 07:26:29;;;;;;;5.43;2.67;;;;;;;23.58;47.75;97891.13;5013683;28;20521;-27
2022/10/06 07:28:58;;;;;;;6.38;2.75;;;;;;;23.59;47.37;97889.91;5013303;28;20034;-30
2022/10/06 07:31:30;;;;;;;4.97;2.80;;;;;;;23.60;47.45;97890.66;5014443;28;20566;-28
2022/10/06 07:33:56;;;;;;;7.07;2.22;;;;;;;23.54;47.88;97898.09;5016015;28;20033;-27
2022/10/06 07:36:21;;;;;;;4.07;2.28;;;;;;;23.58;47.98;97898.69;5015263;28;20025;-28
2022/10/06 07:38:47;;;;;;;5.22;2.53;;;;;;;23.57;47.88;97897.16;5018185;28;20045;-28
2022/10/06 07:41:13;;;;;;;3.53;2.05;;;;;;;23.60;47.94;97896.97;5028627;28;20033;-27
2022/10/06 07:43:39;;;;;;;4.45;2.17;;;;;;;23.59;47.57;97895.44;5016993;28;20129;-27
2022/10/06 07:46:09;;;;;;;3.28;2.20;;;;;;;23.58;48.02;97898.69;5013438;28;20041;-27
2022/10/06 07:48:36;;;;;;;2.72;2.15;;;;;;;23.49;48.33;97893.94;5013994;28;20459;-28
2022/10/06 07:51:05;;;;;;;6.03;2.20;;;;;;;23.56;47.86;97892.84;5013656;28;20398;-27
2022/10/06 07:53:32;;;;;;;2.97;1.70;;;;;;;23.54;48.24;97895.31;5013593;28;20030;-27
2022/10/06 07:56:06;;;;;;;4.03;2.25;;;;;;;23.59;48.19;97902.97;5013598;28;20478;-27
2022/10/06 07:58:33;;;;;;;4.10;2.10;;;;;;;23.52;48.65;97895.03;5013458;28;20026;-29
2022/10/06 08:01:10;;;;;;;3.42;2.05;;;;;;;23.45;48.68;97906.47;5022237;28;20041;-27
2022/10/06 08:03:36;;;;;;;5.35;2.33;;;;;;;23.49;48.58;97898.75;5018948;28;20018;-28
2022/10/06 08:06:03;;;;;;;6.93;2.17;;;;;;;23.57;48.34;97903.44;5032992;28;20037;-28
2022/10/06 08:08:31;;;;;;;5.22;2.35;;;;;;;23.54;48.54;97901.63;5033188;28;20028;-27
2022/10/06 08:10:58;;;;;;;4.05;2.17;;;;;;;23.56;48.54;97901.16;5032712;28;20541;-28
2022/10/06 08:13:25;;;;;;;4.57;2.20;;;;;;;23.53;48.93;97905.63;5031685;28;20025;-27
2022/10/06 08:15:51;;;;;;;2.80;2.03;;;;;;;23.52;48.77;97911.66;5033150;28;20029;-27
2022/10/06 08:18:17;;;;;;;3.78;2.13;;;;;;;23.53;49.11;97904.88;5033271;28;20104;-27
2022/10/06 08:21:27;;;;;;;6.07;2.17;;;;;;;23.47;49.14;97901.22;5033104;28;20025;-27
2022/10/06 08:24:29;;;;;;;4.25;2.00;;;;;;;23.47;49.26;97904.75;5032823;28;20033;-27
2022/10/06 08:26:54;;;;;;;4.03;1.85;;;;;;;23.52;48.90;97908.88;5032903;28;20087;-27
2022/10/06 08:29:21;;;;;;;3.72;1.88;;;;;;;23.60;48.69;97907.28;5034735;28;20466;-27
2022/10/06 08:31:46;;;;;;;3.75;1.80;;;;;;;23.58;48.58;97904.22;5036978;28;20104;-27
2022/10/06 08:34:11;;;;;;;3.90;2.08;;;;;;;23.61;48.83;97909.53;5036649;28;20427;-27
2022/10/06 08:36:37;;;;;;;3.40;1.92;;;;;;;23.57;48.84;97903.44;5036899;28;20025;-27
2022/10/06 08:39:02;;;;;;;3.08;1.98;;;;;;;23.54;48.62;97909.16;5036533;28;20119;-27
2022/10/06 08:41:31;;;;;;;3.90;2.17;;;;;;;23.45;49.55;97915.53;5036683;28;20386;-27
2022/10/06 08:44:04;;;;;;;4.60;2.03;;;;;;;23.08;50.29;97911.59;5036558;28;20451;-27
2022/10/06 08:46:45;;;;;;;3.92;2.05;;;;;;;23.31;49.77;97913.53;5036696;28;20084;-29
2022/10/06 08:49:20;;;;;;;3.17;1.83;;;;;;;23.54;49.11;97914.72;5036475;28;20105;-28
2022/10/06 08:51:52;;;;;;;4.30;1.83;;;;;;;23.47;49.49;97912.31;5036448;28;20025;-27
2022/10/06 08:54:46;;;;;;;3.78;1.75;;;;;;;23.41;49.54;97911.44;5036345;28;20017;-28
2022/10/06 08:57:39;;;;;;;4.88;2.28;;;;;;;23.33;50.21;97904.75;5034525;28;20029;-27
2022/10/06 09:00:10;;;;;;;3.30;2.00;;;;;;;23.44;50.19;97916.03;5034273;28;20465;-27
2022/10/06 09:02:40;;;;;;;4.25;2.40;;;;;;;23.05;52.62;97907.00;5036117;28;20038;-27
2022/10/06 09:05:08;;;;;;;3.92;2.20;;;;;;;22.97;52.65;97905.84;5036393;28;20028;-27
2022/10/06 09:07:37;;;;;;;4.28;2.75;;;;;;;22.97;54.40;97911.38;5036247;28;20021;-27
2022/10/06 09:10:22;;;;;;;9.82;2.60;;;;;;;22.81;54.27;97907.03;5036428;28;20017;-27
2022/10/06 09:12:56;;;;;;;8.13;2.45;;;;;;;23.11;52.67;97907.88;5036218;28;20037;-27
2022/10/06 09:15:27;;;;;;;6.10;2.22;;;;;;;23.36;51.02;97909.34;5036053;28;20049;-27
2022/10/06 09:18:00;;;;;;;3.90;2.00;;;;;;;23.48;50.33;97900.75;5035969;28;20026;-28
2022/10/06 09:20:35;;;;;;;3.25;2.10;;;;;;;23.50;50.65;97905.78;5036215;28;20029;-27
2022/10/06 09:23:04;;;;;;;4.18;2.17;;;;;;;23.49;50.19;97895.97;5036040;28;20100;-27
2022/10/06 09:25:29;;;;;;;6.00;2.63;;;;;;;23.64;50.22;97908.59;5035982;28;20036;-27
2022/10/06 09:27:58;;;;;;;3.17;1.75;;;;;;;23.67;49.81;97908.88;5035784;28;20025;-29
2022/10/06 09:30:24;;;;;;;3.35;1.90;;;;;;;23.71;49.78;97915.00;5035796;28;20091;-27
2022/10/06 09:33:02;;;;;;;3.28;1.80;;;;;;;23.72;49.70;97903.44;5035727;28;20450;-27
2022/10/06 09:35:31;;;;;;;2.70;1.73;;;;;;;23.71;49.60;97913.00;5035771;28;20033;-28
2022/10/06 09:37:58;;;;;;;4.03;1.65;;;;;;;23.72;49.82;97908.22;5035496;28;20043;-28
2022/10/06 09:40:33;;;;;;;2.65;1.60;;;;;;;23.78;49.56;97903.53;5033619;28;20414;-27
2022/10/06 09:42:58;;;;;;;2.20;1.98;;;;;;;23.81;49.30;97910.88;5035411;28;20022;-27
2022/10/06 09:45:25;;;;;;;3.63;2.10;;;;;;;23.74;49.71;97912.03;5035367;28;20030;-27
2022/10/06 09:47:50;;;;;;;2.63;1.70;;;;;;;23.73;49.59;97899.44;5035723;28;20029;-27
2022/10/06 09:50:22;;;;;;;4.82;1.85;;;;;;;23.84;49.21;97909.94;5035408;28;20395;-29
2022/10/06 09:52:56;;;;;;;3.47;2.05;;;;;;;23.75;49.42;97902.47;5035120;28;20032;-27
2022/10/06 09:55:26;;;;;;;3.45;1.90;;;;;;;23.78;49.36;97907.06;5035171;28;20025;-28
2022/10/06 09:57:55;;;;;;;3.60;2.00;;;;;;;23.78;49.58;97903.53;5035261;28;20049;-27
2022/10/06 10:00:30;;;;;;;3.42;1.92;;;;;;;23.75;49.19;97905.25;5035084;28;20029;-27
2022/10/06 10:03:05;;;;;;;3.15;1.65;;;;;;;23.78;49.32;97898.75;5035152;28;20087;-29
2022/10/06 10:05:33;;;;;;;2.67;1.80;;;;;;;23.74;49.48;97898.16;5034970;28;20481;-27
2022/10/06 10:08:08;;;;;;;3.78;1.60;;;;;;;23.82;48.88;97895.78;5033964;28;20036;-27
2022/10/06 10:10:36;;;;;;;2.28;1.65;;;;;;;23.87;48.93;97901.41;5024455;28;20021;-27
2022/10/06 10:13:03;;;;;;;2.92;2.10;;;;;;;23.84;49.13;97894.06;5012925;28;20029;-28
2022/10/06 10:15:32;;;;;;;3.58;1.88;;;;;;;23.78;49.31;97898.75;5024051;28;20094;-27
2022/10/06 10:18:12;;;;;;;4.13;2.17;;;;;;;23.80;48.99;97893.50;5032693;28;20084;-27
2022/10/06 10:20:54;;;;;;;1.80;1.58;;;;;;;23.79;49.09;97897.50;5032785;28;20108;-27
2022/10/06 10:23:24;;;;;;;3.70;2.00;;;;;;;23.79;49.31;97905.06;5032975;28;20033;-28
2022/10/06 10:26:31;;;;;;;3.40;1.80;;;;;;;23.82;49.14;97895.78;5032737;28;20030;-27
2022/10/06 10:29:21;;;;;;;2.92;1.77;;;;;;;23.78;49.02;97892.44;5013085;28;20398;-27
2022/10/06 10:32:16;;;;;;;3.15;1.73;;;;;;;23.78;49.08;97892.44;5013071;28;20021;-27
2022/10/06 10:35:19;;;;;;;2.00;1.60;;;;;;;23.82;48.90;97891.00;5010702;28;20573;-27
2022/10/06 10:37:53;;;;;;;2.90;1.90;;;;;;;23.80;48.82;97890.72;5012888;28;20034;-28
2022/10/06 10:40:41;;;;;;;3.15;1.83;;;;;;;23.80;48.75;97882.41;5012504;28;20049;-27
2022/10/06 10:43:10;;;;;;;3.63;1.92;;;;;;;23.82;48.38;97882.69;5012744;28;20105;-27
2022/10/06 10:45:42;;;;;;;2.78;1.70;;;;;;;23.83;48.61;97880.69;5012448;28;20025;-27
2022/10/06 10:48:18;;;;;;;5.10;1.52;;;;;;;23.79;48.65;97878.13;5012576;28;20057;-27
2022/10/06 10:50:57;;;;;;;3.20;1.45;;;;;;;23.79;48.36;97883.66;5012595;28;20040;-28
2022/10/06 10:53:34;;;;;;;3.85;1.70;;;;;;;23.82;48.51;97890.25;5010479;28;20072;-27
2022/10/06 10:56:02;;;;;;;2.88;1.50;;;;;;;23.87;47.96;97886.78;5012261;28;20040;-27
2022/10/06 10:58:35;;;;;;;3.00;1.33;;;;;;;23.87;48.17;97882.00;5012581;28;20104;-27
2022/10/06 11:01:11;;;;;;;2.35;1.45;;;;;;;23.83;48.02;97881.47;5012525;28;20022;-27
2022/10/06 11:03:36;;;;;;;1.60;1.50;;;;;;;23.87;47.91;97882.00;5019234;28;20030;-28
2022/10/06 11:06:23;;;;;;;3.33;1.60;;;;;;;23.80;48.16;97879.66;5031988;28;20418;-27
2022/10/06 11:08:53;;;;;;;1.67;1.52;;;;;;;23.90;47.53;97875.50;5031796;28;20458;-27
2022/10/06 11:11:37;;;;;;;3.97;1.35;;;;;;;23.91;47.19;97870.75;5032029;28;20033;-27
2022/10/06 11:14:15;;;;;;;3.00;1.58;;;;;;;23.89;47.34;97881.53;5031826;28;20033;-27
2022/10/06 11:16:53;;;;;;;4.18;1.33;;;;;;;23.91;47.23;97868.72;5031924;28;20025;-29
2022/10/06 11:19:27;;;;;;;2.00;1.50;;;;;;;23.88;47.24;97871.69;5031982;28;20021;-27
2022/10/06 11:22:01;;;;;;;2.20;1.40;;;;;;;23.86;47.15;97877.72;5031534;28;20025;-27
2022/10/06 11:24:44;;;;;;;2.22;1.38;;;;;;;23.89;46.71;97864.91;5031935;28;20029;-27
2022/10/06 11:27:30;;;;;;;2.25;1.40;;;;;;;23.93;46.51;97860.72;5031891;28;20025;-28
2022/10/06 11:30:25;;;;;;;2.03;1.50;;;;;;;23.84;46.79;97865.59;5031650;28;20033;-28
2022/10/06 11:33:02;;;;;;;3.38;1.50;;;;;;;23.85;46.59;97856.81;5031024;28;20032;-27
2022/10/06 11:35:38;;;;;;;2.47;1.45;;;;;;;23.89;46.34;97857.38;5030432;28;20398;-28
2022/10/06 11:38:36;;;;;;;3.03;1.60;;;;;;;23.87;46.25;97859.09;5031132;28;20032;-27
2022/10/06 11:41:08;;;;;;;2.15;1.33;;;;;;;23.89;46.08;97851.06;5031216;28;20036;-28
2022/10/06 11:44:05;;;;;;;2.42;1.20;;;;;;;23.85;46.18;97859.59;5031317;28;20108;-29
2022/10/06 11:46:48;;;;;;;4.88;1.80;;;;;;;23.75;46.20;97869.22;5031488;28;20428;-28
2022/10/06 11:49:28;;;;;;;1.85;1.20;;;;;;;23.82;46.00;97862.53;5031563;28;20024;-27
2022/10/06 11:52:14;;;;;;;2.05;1.10;;;;;;;23.74;46.40;97853.84;5031202;28;20029;-28
2022/10/06 11:54:46;;;;;;;3.95;1.48;;;;;;;23.81;46.00;97845.16;5031019;28;20041;-27
2022/10/06 11:57:26;;;;;;;2.88;1.15;;;;;;;23.88;46.22;97849.53;5029645;28;20052;-27
2022/10/06 12:00:16;;;;;;;1.35;1.25;;;;;;;23.87;46.16;97848.75;5021059;28;20022;-28
2022/10/06 12:02:44;;;;;;;3.38;1.35;;;;;;;23.90;45.67;97845.03;5029400;28;20098;-27